createdAt,value
2023-02-12T00:01:19.530Z,52.47
2023-02-12T00:03:48.123Z,52.43
2023-02-12T00:06:16.421Z,52.40
2023-02-12T00:08:44.848Z,52.27
2023-02-12T00:11:16.267Z,51.95
2023-02-12T00:13:44.701Z,52.29
2023-02-12T00:16:16.230Z,51.96
2023-02-12T00:18:44.934Z,52.15
2023-02-12T00:21:14.223Z,52.23
2023-02-12T00:23:42.567Z,52.44
2023-02-12T00:26:13.107Z,52.97
2023-02-12T00:28:43.479Z,53.23
2023-02-12T00:31:15.176Z,53.53
2023-02-12T00:33:44.232Z,53.62
2023-02-12T00:36:16.189Z,53.28
2023-02-12T00:38:45.039Z,53.80
2023-02-12T00:41:13.847Z,53.79
2023-02-12T00:43:43.674Z,54.12
2023-02-12T00:46:12.734Z,54.24
2023-02-12T00:48:41.107Z,54.08
2023-02-12T00:51:09.746Z,55.21
2023-02-12T00:53:38.157Z,55.67
2023-02-12T00:56:06.899Z,56.05
2023-02-12T00:58:35.248Z,56.25
2023-02-12T01:01:05.049Z,56.51
2023-02-12T01:03:33.193Z,56.98
2023-02-12T01:06:01.939Z,57.17
2023-02-12T01:08:30.308Z,57.21
2023-02-12T01:11:01.673Z,57.54
2023-02-12T01:13:31.746Z,59.17
2023-02-12T01:16:09.484Z,60.00
2023-02-12T01:18:39.133Z,59.76
2023-02-12T01:21:11.811Z,59.66
2023-02-12T01:23:40.341Z,59.95
2023-02-12T01:26:10.915Z,60.00
2023-02-12T01:28:39.720Z,60.19
2023-02-12T01:31:15.007Z,60.18
2023-02-12T01:33:44.071Z,60.91
2023-02-12T01:36:12.949Z,61.60
2023-02-12T01:38:41.221Z,62.52
2023-02-12T01:41:11.876Z,62.60
2023-02-12T01:43:40.438Z,62.83
2023-02-12T01:46:10.966Z,64.00
2023-02-12T01:48:46.529Z,64.11
2023-02-12T01:51:20.654Z,63.87
2023-02-12T01:53:52.219Z,64.21
2023-02-12T01:56:20.809Z,63.61
2023-02-12T01:58:53.196Z,63.55
2023-02-12T02:01:24.219Z,62.79
2023-02-12T02:03:57.004Z,62.24
2023-02-12T02:06:29.546Z,62.49
2023-02-12T02:08:58.264Z,62.07
2023-02-12T02:11:44.009Z,62.00
2023-02-12T02:14:29.672Z,62.83
2023-02-12T02:17:09.085Z,63.35
2023-02-12T02:20:05.650Z,64.99
2023-02-12T02:22:40.194Z,66.69
2023-02-12T02:25:51.613Z,68.57
2023-02-12T02:28:48.156Z,68.92
2023-02-12T02:31:22.299Z,70.24
2023-02-12T02:33:58.774Z,70.39
2023-02-12T02:36:35.921Z,69.74
2023-02-12T02:39:08.075Z,70.59
2023-02-12T02:41:44.244Z,70.55
2023-02-12T02:44:17.370Z,69.40
2023-02-12T02:46:50.149Z,69.55
2023-02-12T02:49:24.535Z,68.46
2023-02-12T02:51:57.509Z,68.50
2023-02-12T02:54:32.678Z,67.82
2023-02-12T02:57:06.836Z,67.04
2023-02-12T02:59:39.330Z,66.09
2023-02-12T03:02:14.639Z,65.51
2023-02-12T03:04:46.948Z,65.27
2023-02-12T03:07:20.036Z,64.91
2023-02-12T03:09:51.966Z,64.69
2023-02-12T03:12:25.519Z,64.58
2023-02-12T03:14:57.983Z,64.80
2023-02-12T03:17:32.610Z,65.86
2023-02-12T03:20:06.254Z,66.34
2023-02-12T03:22:37.940Z,66.10
2023-02-12T03:25:12.270Z,66.21
2023-02-12T03:27:43.926Z,66.02
2023-02-12T03:30:13.298Z,65.97
2023-02-12T03:32:54.962Z,66.01
2023-02-12T03:35:26.531Z,65.76
2023-02-12T03:37:59.652Z,65.60
2023-02-12T03:40:34.255Z,65.01
2023-02-12T03:43:06.955Z,64.18
2023-02-12T03:45:51.490Z,63.66
2023-02-12T03:48:27.453Z,63.45
2023-02-12T03:51:00.610Z,62.83
2023-02-12T03:53:30.020Z,62.81
2023-02-12T03:56:04.698Z,62.50
2023-02-12T03:58:36.619Z,63.17
2023-02-12T04:01:05.785Z,63.04
2023-02-12T04:03:36.052Z,63.04
2023-02-12T04:06:04.408Z,63.25
2023-02-12T04:08:34.017Z,62.89
2023-02-12T04:11:14.250Z,62.67
2023-02-12T04:13:47.404Z,62.62
2023-02-12T04:16:23.902Z,62.66
2023-02-12T04:18:54.940Z,62.97
2023-02-12T04:21:44.667Z,62.97
2023-02-12T04:24:20.928Z,62.98
2023-02-12T04:26:55.785Z,63.33
2023-02-12T04:29:30.341Z,63.41
2023-02-12T04:32:09.030Z,63.44
2023-02-12T04:34:46.483Z,63.85
2023-02-12T04:37:19.175Z,64.33
2023-02-12T04:39:49.140Z,64.85
2023-02-12T04:42:17.991Z,64.97
2023-02-12T04:44:46.363Z,64.87
2023-02-12T04:47:16.149Z,64.69
2023-02-12T04:49:45.843Z,64.89
2023-02-12T04:52:14.026Z,64.83
2023-02-12T04:54:42.135Z,65.50
2023-02-12T04:57:10.857Z,65.52
2023-02-12T04:59:39.076Z,65.89
2023-02-12T05:02:07.209Z,66.42
2023-02-12T05:04:35.283Z,66.56
2023-02-12T05:07:04.808Z,66.38
2023-02-12T05:09:32.944Z,66.94
2023-02-12T05:12:01.050Z,67.11
2023-02-12T05:14:29.797Z,67.40
2023-02-12T05:16:58.049Z,67.77
2023-02-12T05:19:26.214Z,67.91
2023-02-12T05:21:54.373Z,68.05
2023-02-12T05:24:23.961Z,68.26
2023-02-12T05:26:52.237Z,68.80
2023-02-12T05:29:22.839Z,68.96
2023-02-12T05:31:51.199Z,68.66
2023-02-12T05:34:20.308Z,69.02
2023-02-12T05:36:48.405Z,68.99
2023-02-12T05:39:16.835Z,69.13
2023-02-12T05:41:46.654Z,69.30
2023-02-12T05:44:15.283Z,69.50
2023-02-12T05:46:43.962Z,69.66
2023-02-12T05:49:12.591Z,70.11
2023-02-12T05:51:40.764Z,69.77
2023-02-12T05:54:09.296Z,69.74
2023-02-12T05:56:39.709Z,69.54
2023-02-12T05:59:16.678Z,69.08
2023-02-12T06:01:46.373Z,68.77
2023-02-12T06:04:17.217Z,68.67
2023-02-12T06:06:45.698Z,68.26
2023-02-12T06:09:15.474Z,67.87
2023-02-12T06:11:44.368Z,67.87
2023-02-12T06:14:16.702Z,67.50
2023-02-12T06:16:46.843Z,66.66
2023-02-12T06:19:15.190Z,66.50
2023-02-12T06:21:44.083Z,66.12
2023-02-12T06:24:13.886Z,65.77
2023-02-12T06:26:43.792Z,64.89
2023-02-12T06:29:14.449Z,64.97
2023-02-12T06:31:44.884Z,64.81
2023-02-12T06:34:14.840Z,63.95
2023-02-12T06:36:45.693Z,63.83
2023-02-12T06:39:15.803Z,63.93
2023-02-12T06:41:44.827Z,63.36
2023-02-12T06:44:14.895Z,63.05
2023-02-12T06:46:43.195Z,62.34
2023-02-12T06:49:14.321Z,61.79
2023-02-12T06:51:43.393Z,61.69
2023-02-12T06:54:15.387Z,61.31
2023-02-12T06:56:44.179Z,61.64
2023-02-12T06:59:19.952Z,61.52
2023-02-12T07:01:50.746Z,60.88
2023-02-12T07:04:18.981Z,60.24
2023-02-12T07:06:47.366Z,59.11
2023-02-12T07:09:15.593Z,58.85
2023-02-12T07:11:43.860Z,59.04
2023-02-12T07:14:16.675Z,59.23
2023-02-12T07:16:44.968Z,59.03
2023-02-12T07:19:16.794Z,59.27
2023-02-12T07:21:45.158Z,58.63
2023-02-12T07:24:15.108Z,57.89
2023-02-12T07:26:43.756Z,57.97
2023-02-12T07:29:12.781Z,57.42
2023-02-12T07:31:42.990Z,57.27
2023-02-12T07:34:12.368Z,57.16
2023-02-12T07:36:40.617Z,57.58
2023-02-12T07:39:08.954Z,58.07
2023-02-12T07:41:38.220Z,57.79
2023-02-12T07:44:10.382Z,57.25
2023-02-12T07:46:41.181Z,56.58
2023-02-12T07:49:17.142Z,55.83
2023-02-12T07:51:45.729Z,55.03
2023-02-12T07:54:15.712Z,54.60
2023-02-12T07:56:47.202Z,54.71
2023-02-12T07:59:17.638Z,54.66
2023-02-12T08:01:48.908Z,54.73
2023-02-12T08:04:25.129Z,54.38
2023-02-12T08:06:55.260Z,54.36
2023-02-12T08:09:25.328Z,54.86
2023-02-12T08:11:53.662Z,54.18
2023-02-12T08:14:23.659Z,54.05
2023-02-12T08:16:52.865Z,53.36
2023-02-12T08:19:26.330Z,53.26
2023-02-12T08:21:57.017Z,54.20
2023-02-12T08:24:25.402Z,53.86
2023-02-12T08:26:53.728Z,53.96
2023-02-12T08:29:25.299Z,54.42
2023-02-12T08:31:58.210Z,54.30
2023-02-12T08:34:29.634Z,54.73
2023-02-12T08:36:59.201Z,54.05
2023-02-12T08:39:29.713Z,53.68
2023-02-12T08:41:59.008Z,53.75
2023-02-12T08:44:27.418Z,53.78
2023-02-12T08:46:56.795Z,53.68
2023-02-12T08:49:28.692Z,53.44
2023-02-12T08:52:02.540Z,53.19
2023-02-12T08:54:32.898Z,52.68
2023-02-12T08:57:04.165Z,51.75
2023-02-12T08:59:32.924Z,51.73
2023-02-12T09:02:02.270Z,52.31
2023-02-12T09:04:32.235Z,51.60
2023-02-12T09:07:00.735Z,50.84
2023-02-12T09:09:28.983Z,49.22
2023-02-12T09:11:57.272Z,49.27
2023-02-12T09:14:25.531Z,49.36
2023-02-12T09:16:54.829Z,49.25
2023-02-12T09:19:24.520Z,48.91
2023-02-12T09:21:56.477Z,49.42
2023-02-12T09:24:25.304Z,50.22
2023-02-12T09:26:53.657Z,51.25
2023-02-12T09:29:22.002Z,52.42
2023-02-12T09:31:50.294Z,53.40
2023-02-12T09:34:25.162Z,53.41
2023-02-12T09:36:54.739Z,54.31
2023-02-12T09:39:22.801Z,55.01
2023-02-12T09:42:22.333Z,55.84
2023-02-12T09:44:59.849Z,56.44
2023-02-12T09:47:35.330Z,57.76
2023-02-12T09:50:19.116Z,58.76
2023-02-12T09:52:52.081Z,59.46
2023-02-12T09:55:21.408Z,59.78
2023-02-12T09:57:49.806Z,60.48
2023-02-12T10:00:23.943Z,61.16
2023-02-12T10:02:54.537Z,61.55
2023-02-12T10:05:28.644Z,61.98
2023-02-12T10:08:14.750Z,62.05
2023-02-12T10:10:52.967Z,62.02
2023-02-12T10:13:36.336Z,61.40
2023-02-12T10:16:15.848Z,62.09
2023-02-12T10:19:07.422Z,62.05
2023-02-12T10:21:46.181Z,62.97
2023-02-12T10:24:28.864Z,63.73
2023-02-12T10:27:01.137Z,62.97
2023-02-12T10:29:33.047Z,62.97
2023-02-12T10:32:06.209Z,62.30
2023-02-12T10:34:37.481Z,61.88
2023-02-12T10:37:12.981Z,62.36
2023-02-12T10:39:48.736Z,62.05
2023-02-12T10:42:21.121Z,61.30
2023-02-12T10:44:49.473Z,59.93
2023-02-12T10:47:20.873Z,60.42
2023-02-12T10:49:52.552Z,59.73
2023-02-12T10:52:35.690Z,60.28
2023-02-12T10:55:26.283Z,59.27
2023-02-12T10:57:55.349Z,59.31
2023-02-12T11:00:30.384Z,59.03
2023-02-12T11:03:21.565Z,58.71
2023-02-12T11:05:50.682Z,59.63
2023-02-12T11:08:32.943Z,59.61
2023-02-12T11:11:09.508Z,59.05
2023-02-12T11:13:38.873Z,58.15
2023-02-12T11:16:08.098Z,58.59
2023-02-12T11:18:37.451Z,58.37
2023-02-12T11:21:08.435Z,58.26
2023-02-12T11:23:38.861Z,57.60
2023-02-12T11:26:23.758Z,57.34
2023-02-12T11:28:57.952Z,56.34
2023-02-12T11:31:28.549Z,55.60
2023-02-12T11:34:15.855Z,55.63
2023-02-12T11:36:46.451Z,55.70
2023-02-12T11:39:28.339Z,55.16
2023-02-12T11:42:00.360Z,54.49
2023-02-12T11:44:32.057Z,53.70
2023-02-12T11:47:07.510Z,53.64
2023-02-12T11:49:44.219Z,53.37
2023-02-12T11:52:25.237Z,53.29
2023-02-12T11:54:56.709Z,52.85
2023-02-12T11:57:40.350Z,52.85
2023-02-12T12:00:18.545Z,52.68
2023-02-12T12:02:52.630Z,52.84
2023-02-12T12:05:22.879Z,53.55
2023-02-12T12:07:56.028Z,54.02
2023-02-12T12:10:35.457Z,54.53
2023-02-12T12:13:12.288Z,55.27
2023-02-12T12:16:04.171Z,55.85
2023-02-12T12:18:56.524Z,56.99
2023-02-12T12:21:32.224Z,57.68
2023-02-12T12:24:04.229Z,57.58
2023-02-12T12:26:35.336Z,57.26
2023-02-12T12:29:12.001Z,57.60
2023-02-12T12:31:44.094Z,58.94
2023-02-12T12:34:17.268Z,58.94
2023-02-12T12:37:24.004Z,59.21
2023-02-12T12:40:14.189Z,59.63
2023-02-12T12:43:04.906Z,60.80
2023-02-12T12:46:01.176Z,61.74
2023-02-12T12:48:45.110Z,62.37
2023-02-12T12:51:34.615Z,62.98
2023-02-12T12:54:19.270Z,63.65
2023-02-12T12:56:58.160Z,64.67
2023-02-12T12:59:57.074Z,65.55
2023-02-12T13:02:53.493Z,65.94
2023-02-12T13:05:57.922Z,66.01
2023-02-12T13:08:59.871Z,65.78
2023-02-12T13:11:40.361Z,65.23
2023-02-12T13:14:28.954Z,65.85
2023-02-12T13:17:07.671Z,66.85
2023-02-12T13:19:48.501Z,67.59
2023-02-12T13:22:25.288Z,67.78
2023-02-12T13:25:03.845Z,68.12
2023-02-12T13:27:36.598Z,69.02
2023-02-12T13:30:08.828Z,69.18
2023-02-12T13:32:43.522Z,69.50
2023-02-12T13:35:20.409Z,70.30
2023-02-12T13:37:52.418Z,71.04
2023-02-12T13:40:22.337Z,71.53
2023-02-12T13:42:57.044Z,71.77
2023-02-12T13:45:37.618Z,72.04
2023-02-12T13:48:22.131Z,72.53
2023-02-12T13:51:02.893Z,72.80
2023-02-12T13:53:43.493Z,72.42
2023-02-12T13:56:25.493Z,72.79
2023-02-12T13:59:00.407Z,73.52
2023-02-12T14:01:47.623Z,73.56
2023-02-12T14:04:28.774Z,74.36
2023-02-12T14:07:01.754Z,75.11
2023-02-12T14:09:37.994Z,75.61
2023-02-12T14:12:11.214Z,76.66
2023-02-12T14:14:42.743Z,77.61
2023-02-12T14:17:43.241Z,78.67
2023-02-12T14:20:26.462Z,80.49
2023-02-12T14:23:32.483Z,81.26
2023-02-12T14:26:08.040Z,82.42
2023-02-12T14:28:53.647Z,83.31
2023-02-12T14:31:36.685Z,83.74
2023-02-12T14:34:40.000Z,83.90
2023-02-12T14:37:16.397Z,81.61
2023-02-12T14:39:46.586Z,84.11
2023-02-12T14:42:56.902Z,82.30
2023-02-12T14:45:30.928Z,82.01
2023-02-12T14:47:59.563Z,81.29
2023-02-12T14:50:37.731Z,81.29
2023-02-12T14:53:16.406Z,81.99
2023-02-12T14:55:48.560Z,82.05
2023-02-12T14:58:20.234Z,81.46
2023-02-12T15:00:51.153Z,81.42
2023-02-12T15:03:25.350Z,80.68
2023-02-12T15:06:02.349Z,79.23
2023-02-12T15:08:38.149Z,78.92
2023-02-12T15:11:18.496Z,78.95
2023-02-12T15:13:55.132Z,78.18
2023-02-12T15:16:36.312Z,78.40
2023-02-12T15:19:19.697Z,78.80
2023-02-12T15:21:49.166Z,78.90
2023-02-12T15:24:24.251Z,78.96
2023-02-12T15:26:57.342Z,79.38
2023-02-12T15:29:28.916Z,79.78
2023-02-12T15:31:59.917Z,80.98
2023-02-12T15:34:31.975Z,81.29
2023-02-12T15:37:02.452Z,81.52
2023-02-12T15:39:41.098Z,82.01
2023-02-12T15:42:30.153Z,81.42
2023-02-12T15:45:23.638Z,82.10
2023-02-12T15:48:13.473Z,82.82
2023-02-12T15:50:52.818Z,82.75
2023-02-12T15:53:24.292Z,82.92
2023-02-12T15:55:53.124Z,82.69
2023-02-12T15:58:29.360Z,82.96
2023-02-12T16:01:03.521Z,83.35
2023-02-12T16:03:33.728Z,83.43
2023-02-12T16:06:05.841Z,84.00
2023-02-12T16:08:36.774Z,84.66
2023-02-12T16:11:14.100Z,85.12
2023-02-12T16:13:47.119Z,85.47
2023-02-12T16:16:23.294Z,86.07
2023-02-12T16:19:08.769Z,87.18
2023-02-12T16:21:39.879Z,87.75
2023-02-12T16:24:23.067Z,88.12
2023-02-12T16:26:51.837Z,88.52
2023-02-12T16:29:22.000Z,88.21
2023-02-12T16:32:02.210Z,88.45
2023-02-12T16:34:37.610Z,88.00
2023-02-12T16:37:44.595Z,88.50
2023-02-12T16:40:26.720Z,88.39
2023-02-12T16:43:04.505Z,88.20
2023-02-12T16:45:45.105Z,88.11
2023-02-12T16:48:20.775Z,87.89
2023-02-12T16:50:52.345Z,87.29
2023-02-12T16:53:47.187Z,86.79
2023-02-12T16:56:18.352Z,85.83
2023-02-12T16:58:48.477Z,84.96
2023-02-12T17:01:24.660Z,84.89
2023-02-12T17:03:54.197Z,84.16
2023-02-12T17:06:24.678Z,83.28
2023-02-12T17:08:55.073Z,83.31
2023-02-12T17:11:24.692Z,83.48
2023-02-12T17:13:54.565Z,83.82
2023-02-12T17:16:30.766Z,84.12
2023-02-12T17:19:00.262Z,83.82
2023-02-12T17:21:31.528Z,84.14
2023-02-12T17:24:00.028Z,83.94
2023-02-12T17:26:28.447Z,83.42
2023-02-12T17:29:05.354Z,83.38
2023-02-12T17:31:36.754Z,83.02
2023-02-12T17:34:05.965Z,81.90
2023-02-12T17:36:34.672Z,81.58
2023-02-12T17:39:05.572Z,81.52
2023-02-12T17:41:33.932Z,81.04
2023-02-12T17:44:02.253Z,80.31
2023-02-12T17:46:31.488Z,80.53
2023-02-12T17:49:01.153Z,80.47
2023-02-12T17:51:29.367Z,80.70
2023-02-12T17:53:57.742Z,80.21
2023-02-12T17:56:25.910Z,79.18
2023-02-12T17:58:54.327Z,78.86
2023-02-12T18:01:24.062Z,78.65
2023-02-12T18:03:54.536Z,78.09
2023-02-12T18:06:27.666Z,78.72
2023-02-12T18:08:57.232Z,77.64
2023-02-12T18:11:26.273Z,76.51
2023-02-12T18:13:55.968Z,75.79
2023-02-12T18:16:25.619Z,75.16
2023-02-12T18:18:53.881Z,74.37
2023-02-12T18:21:22.369Z,74.23
2023-02-12T18:23:53.888Z,74.74
2023-02-12T18:26:22.935Z,74.91
2023-02-12T18:28:51.415Z,75.75
2023-02-12T18:31:21.325Z,75.22
2023-02-12T18:33:49.555Z,75.48
2023-02-12T18:36:19.559Z,76.00
2023-02-12T18:38:50.381Z,75.65
2023-02-12T18:41:21.885Z,76.03
2023-02-12T18:43:50.511Z,75.34
2023-02-12T18:46:22.208Z,75.34
2023-02-12T18:48:50.954Z,75.71
2023-02-12T18:51:22.400Z,75.74
2023-02-12T18:53:55.375Z,76.19
2023-02-12T18:56:25.285Z,76.39
2023-02-12T18:58:57.609Z,76.47
2023-02-12T19:01:26.591Z,76.83
2023-02-12T19:03:55.708Z,77.13
2023-02-12T19:06:24.178Z,77.47
2023-02-12T19:08:56.283Z,78.05
2023-02-12T19:11:26.331Z,78.39
2023-02-12T19:13:54.794Z,78.52
2023-02-12T19:16:24.638Z,78.25
2023-02-12T19:18:54.893Z,77.79
2023-02-12T19:21:26.171Z,78.37
2023-02-12T19:23:55.325Z,77.76
2023-02-12T19:26:23.881Z,77.48
2023-02-12T19:28:53.479Z,78.67
2023-02-12T19:31:24.292Z,78.81
2023-02-12T19:33:57.208Z,78.89
2023-02-12T19:36:26.355Z,78.54
2023-02-12T19:38:54.757Z,78.39
2023-02-12T19:41:25.049Z,77.69
2023-02-12T19:43:58.337Z,77.13
2023-02-12T19:46:27.920Z,76.56
2023-02-12T19:48:58.239Z,76.17
2023-02-12T19:51:27.801Z,75.68
2023-02-12T19:53:56.506Z,74.92
2023-02-12T19:56:24.621Z,74.34
2023-02-12T19:58:53.019Z,73.76
2023-02-12T20:01:22.803Z,73.59
2023-02-12T20:03:51.274Z,73.16
2023-02-12T20:06:22.002Z,73.39
2023-02-12T20:08:50.826Z,73.30
2023-02-12T20:11:20.967Z,72.90
2023-02-12T20:13:49.134Z,73.12
2023-02-12T20:16:20.020Z,72.63
2023-02-12T20:18:52.176Z,72.25
2023-02-12T20:21:22.053Z,71.91
2023-02-12T20:23:50.302Z,71.81
2023-02-12T20:26:20.617Z,71.63
2023-02-12T20:28:49.610Z,71.01
2023-02-12T20:31:19.562Z,70.96
2023-02-12T20:33:54.055Z,70.53
2023-02-12T20:36:22.277Z,70.22
2023-02-12T20:39:00.245Z,70.26
2023-02-12T20:41:30.331Z,69.97
2023-02-12T20:44:01.285Z,69.08
2023-02-12T20:46:29.654Z,69.23
2023-02-12T20:48:59.360Z,69.04
2023-02-12T20:51:29.108Z,68.81
2023-02-12T20:53:57.363Z,69.41
2023-02-12T20:56:27.373Z,69.08
2023-02-12T20:58:55.617Z,68.79
2023-02-12T21:01:26.058Z,68.43
2023-02-12T21:03:56.223Z,68.14
2023-02-12T21:06:26.196Z,68.32
2023-02-12T21:08:54.364Z,68.42
2023-02-12T21:11:25.862Z,68.67
2023-02-12T21:14:18.571Z,68.21
2023-02-12T21:16:45.591Z,68.67
2023-02-12T21:19:14.175Z,68.48
2023-02-12T21:21:45.530Z,68.55
2023-02-12T21:24:16.335Z,68.73
2023-02-12T21:26:44.584Z,68.77
2023-02-12T21:29:13.064Z,69.24
2023-02-12T21:31:43.209Z,69.46
2023-02-12T21:34:15.584Z,69.58
2023-02-12T21:36:47.181Z,69.48
2023-02-12T21:39:24.506Z,69.65
2023-02-12T21:41:54.523Z,69.59
2023-02-12T21:44:24.275Z,69.89
2023-02-12T21:46:52.727Z,70.04
2023-02-12T21:49:25.052Z,70.47
2023-02-12T21:51:56.129Z,70.78
2023-02-12T21:54:24.464Z,71.01
2023-02-12T21:56:52.878Z,71.08
2023-02-12T21:59:21.098Z,71.50
2023-02-12T22:01:50.534Z,71.08
2023-02-12T22:04:19.677Z,71.01
2023-02-12T22:06:49.443Z,71.63
2023-02-12T22:09:23.280Z,72.48
2023-02-12T22:11:53.099Z,72.89
2023-02-12T22:14:22.480Z,73.07
2023-02-12T22:16:51.097Z,73.34
2023-02-12T22:19:19.286Z,73.17
2023-02-12T22:21:47.434Z,73.60
2023-02-12T22:24:18.820Z,73.56
2023-02-12T22:26:47.399Z,73.55
2023-02-12T22:29:17.098Z,74.18
2023-02-12T22:31:47.143Z,74.38
2023-02-12T22:34:17.697Z,74.28
2023-02-12T22:36:47.017Z,73.69
2023-02-12T22:39:17.635Z,73.27
2023-02-12T22:41:47.627Z,73.07
2023-02-12T22:44:18.853Z,73.09
2023-02-12T22:46:48.065Z,72.91
2023-02-12T22:49:17.856Z,73.18
2023-02-12T22:51:46.075Z,73.77
2023-02-12T22:54:15.848Z,73.27
2023-02-12T22:56:44.413Z,73.27
2023-02-12T22:59:14.428Z,73.55
2023-02-12T23:01:42.936Z,73.99
2023-02-12T23:04:16.297Z,73.45
2023-02-12T23:06:44.964Z,73.68
2023-02-12T23:09:15.377Z,73.66
2023-02-12T23:11:43.832Z,73.85
2023-02-12T23:14:13.591Z,73.56
2023-02-12T23:16:41.864Z,73.49
2023-02-12T23:19:12.039Z,73.46
2023-02-12T23:21:40.548Z,73.44
2023-02-12T23:24:08.938Z,73.09
2023-02-12T23:26:37.213Z,72.98
2023-02-12T23:29:05.569Z,73.37
2023-02-12T23:31:35.164Z,72.96
2023-02-12T23:34:03.326Z,73.23
2023-02-12T23:36:31.540Z,73.35
2023-02-12T23:39:00.149Z,72.99
2023-02-12T23:41:28.306Z,73.02
2023-02-12T23:43:56.373Z,73.61
2023-02-12T23:46:24.530Z,74.40
2023-02-12T23:48:54.133Z,74.67
2023-02-12T23:51:22.248Z,75.15
2023-02-12T23:53:50.402Z,75.32
2023-02-12T23:56:18.537Z,75.54
2023-02-12T23:58:46.850Z,75.22
